Time;durP1;ratioP1;P1;durP2;ratioP2;P2;SDS_P1;SDS_P2;PMS_P1;PMS_P2;Temp;Humidity;BMP_temperature;BMP_pressure;BME280_temperature;BME280_humidity;BME280_pressure;Samples;Min_cycle;Max_cycle;Signal;HPM_P1;HPM_P2
2023/12/23 00:00:20;;;;;;;1.83;1.47;;;6.80;99.90;;;;;;4974638;28;20720;-75
2023/12/23 00:02:48;;;;;;;2.40;1.60;;;6.70;99.90;;;;;;4975023;28;20656;-75
2023/12/23 00:05:15;;;;;;;2.53;2.03;;;6.70;99.90;;;;;;4961188;28;20197;-74
2023/12/23 00:07:41;;;;;;;3.33;1.60;;;6.80;99.90;;;;;;4955762;29;20280;-75
2023/12/23 00:10:08;;;;;;;4.10;1.70;;;6.80;99.90;;;;;;4955763;28;20201;-73
2023/12/23 00:12:35;;;;;;;2.50;1.73;;;6.90;99.90;;;;;;4957052;29;20209;-73
2023/12/23 00:15:02;;;;;;;2.80;1.50;;;6.90;99.90;;;;;;4955791;28;20197;-73
2023/12/23 00:17:29;;;;;;;2.40;1.80;;;6.80;99.90;;;;;;4955620;29;20260;-74
2023/12/23 00:19:57;;;;;;;4.67;1.70;;;7.00;99.90;;;;;;4955766;28;20566;-79
2023/12/23 00:22:23;;;;;;;4.70;1.77;;;7.00;99.90;;;;;;4956074;29;20208;-81
2023/12/23 00:24:50;;;;;;;2.13;1.60;;;7.00;99.90;;;;;;4955546;28;20197;-83
2023/12/23 00:27:17;;;;;;;1.77;1.63;;;7.10;99.90;;;;;;4955521;29;20205;-80
2023/12/23 00:29:43;;;;;;;2.83;1.73;;;7.00;99.90;;;;;;4955118;28;20197;-77
2023/12/23 00:32:10;;;;;;;3.13;1.60;;;7.10;99.90;;;;;;4955617;29;20202;-80
2023/12/23 00:34:36;;;;;;;1.73;1.40;;;7.10;99.90;;;;;;4955198;28;20665;-79
2023/12/23 00:37:05;;;;;;;3.30;1.70;;;7.00;99.90;;;;;;4955502;29;20233;-77
2023/12/23 00:39:31;;;;;;;2.17;1.43;;;7.10;99.90;;;;;;4955363;29;20209;-76
2023/12/23 00:41:58;;;;;;;2.37;1.43;;;7.20;99.90;;;;;;4955345;29;20272;-76
2023/12/23 00:44:24;;;;;;;3.23;1.40;;;7.10;99.90;;;;;;4955171;28;20204;-74
2023/12/23 00:46:51;;;;;;;1.83;1.20;;;7.20;99.90;;;;;;4955379;29;20208;-74
2023/12/23 00:49:18;;;;;;;3.17;1.53;;;7.30;99.90;;;;;;4955056;29;20209;-75
2023/12/23 00:51:44;;;;;;;2.47;1.40;;;7.30;99.90;;;;;;4955078;29;20201;-74
2023/12/23 00:54:12;;;;;;;2.67;1.50;;;7.30;99.90;;;;;;4955094;29;20605;-73
2023/12/23 00:56:39;;;;;;;1.87;1.00;;;7.30;99.90;;;;;;4955238;29;20201;-73
2023/12/23 00:59:05;;;;;;;3.00;1.40;;;7.30;99.90;;;;;;4955293;29;20204;-74
2023/12/23 01:01:32;;;;;;;2.70;1.93;;;7.30;99.90;;;;;;4955159;29;20782;-73
2023/12/23 01:03:59;;;;;;;1.77;1.30;;;7.30;99.90;;;;;;4955107;29;20201;-74
2023/12/23 01:06:25;;;;;;;2.90;1.50;;;7.10;99.90;;;;;;4954659;29;20202;-75
2023/12/23 01:08:51;;;;;;;2.50;1.60;;;7.10;99.90;;;;;;4954862;29;20653;-75
2023/12/23 01:11:19;;;;;;;4.03;1.70;;;7.00;99.90;;;;;;4954942;29;20260;-79
2023/12/23 01:13:45;;;;;;;3.93;1.90;;;6.90;99.90;;;;;;4955074;29;20204;-79
2023/12/23 01:16:12;;;;;;;2.90;1.63;;;6.80;99.90;;;;;;4954789;29;20649;-78
2023/12/23 01:18:39;;;;;;;3.80;1.63;;;6.70;99.90;;;;;;4954968;29;20204;-77
2023/12/23 01:21:05;;;;;;;3.60;2.10;;;6.60;99.90;;;;;;4953932;29;20630;-76
2023/12/23 01:23:32;;;;;;;4.07;1.70;;;6.50;99.90;;;;;;4954782;29;20247;-77
2023/12/23 01:25:59;;;;;;;5.63;1.97;;;6.50;99.90;;;;;;4954905;29;20205;-76
2023/12/23 01:28:27;;;;;;;2.23;1.70;;;6.40;99.90;;;;;;4954639;29;20205;-76
2023/12/23 01:30:53;;;;;;;5.67;1.50;;;6.20;99.90;;;;;;4954585;29;20658;-76
2023/12/23 01:33:20;;;;;;;3.33;1.30;;;5.10;99.90;;;;;;4954927;29;20201;-80
2023/12/23 01:35:46;;;;;;;2.10;0.70;;;4.70;99.90;;;;;;4954506;29;20256;-80
2023/12/23 01:38:13;;;;;;;4.40;0.87;;;4.60;99.90;;;;;;4954258;29;20204;-79
2023/12/23 01:40:40;;;;;;;0.97;0.90;;;4.60;99.90;;;;;;4954591;29;20231;-78
2023/12/23 01:43:06;;;;;;;1.90;0.80;;;4.60;99.90;;;;;;4954440;29;20239;-78
2023/12/23 01:45:34;;;;;;;0.63;0.60;;;4.60;99.90;;;;;;4954732;29;20651;-76
2023/12/23 01:48:03;;;;;;;1.37;0.77;;;4.70;99.90;;;;;;4954213;29;20200;-78
2023/12/23 01:50:30;;;;;;;0.77;0.70;;;4.70;99.90;;;;;;4954509;29;20201;-79
2023/12/23 01:52:57;;;;;;;1.83;0.67;;;4.70;99.90;;;;;;4954422;29;20623;-78
2023/12/23 01:55:27;;;;;;;2.77;0.90;;;4.70;99.90;;;;;;4956649;28;20338;-77
2023/12/23 01:57:54;;;;;;;1.17;0.80;;;4.80;99.90;;;;;;4958289;29;20231;-77
2023/12/23 02:00:22;;;;;;;0.73;0.73;;;4.80;99.90;;;;;;4958393;29;20282;-79
2023/12/23 02:02:49;;;;;;;2.67;0.87;;;4.80;99.90;;;;;;4958225;29;20703;-78
2023/12/23 02:05:16;;;;;;;1.53;1.07;;;4.80;99.90;;;;;;4958249;29;20278;-77
2023/12/23 02:07:45;;;;;;;1.00;0.90;;;4.80;99.90;;;;;;4958294;29;20208;-76
2023/12/23 02:10:12;;;;;;;0.70;0.70;;;4.90;99.90;;;;;;4958215;29;20209;-76
2023/12/23 02:12:49;;;;;;;1.20;0.80;;;5.00;99.90;;;;;;4958152;29;20207;-76
2023/12/23 02:15:16;;;;;;;2.27;1.00;;;5.00;99.90;;;;;;4957791;29;20214;-76
2023/12/23 02:17:43;;;;;;;3.27;1.17;;;5.00;99.90;;;;;;4958286;29;20211;-77
2023/12/23 02:20:11;;;;;;;1.40;1.13;;;5.00;99.90;;;;;;4958215;29;20208;-77
2023/12/23 02:22:39;;;;;;;4.40;1.13;;;5.00;99.90;;;;;;4957900;29;20676;-76
2023/12/23 02:25:07;;;;;;;3.63;1.00;;;5.00;99.90;;;;;;4958016;29;20250;-76
2023/12/23 02:27:40;;;;;;;1.23;1.00;;;5.00;99.90;;;;;;4957825;29;20665;-78
2023/12/23 02:30:12;;;;;;;2.87;1.00;;;5.00;99.90;;;;;;4958124;29;20258;-76
2023/12/23 02:32:41;;;;;;;1.70;1.10;;;5.00;99.90;;;;;;4957971;29;20208;-76
2023/12/23 02:35:08;;;;;;;2.73;1.10;;;5.00;99.90;;;;;;4957574;29;20665;-77
2023/12/23 02:37:35;;;;;;;1.57;1.10;;;5.00;99.90;;;;;;4957609;29;20199;-76
2023/12/23 02:40:04;;;;;;;1.87;1.03;;;5.10;99.90;;;;;;4957684;29;20272;-77
2023/12/23 02:42:30;;;;;;;1.73;1.30;;;5.10;99.90;;;;;;4957354;29;20247;-77
2023/12/23 02:44:57;;;;;;;3.23;1.30;;;5.10;99.90;;;;;;4957865;29;20242;-77
2023/12/23 02:47:24;;;;;;;1.67;1.10;;;5.20;99.90;;;;;;4957646;29;20617;-79
2023/12/23 02:49:50;;;;;;;2.07;1.27;;;5.20;99.90;;;;;;4957448;29;20546;-78
2023/12/23 02:52:17;;;;;;;1.30;1.20;;;5.30;99.90;;;;;;4957487;29;20203;-79
2023/12/23 02:54:44;;;;;;;1.13;1.03;;;5.30;99.90;;;;;;4957338;29;20200;-79
2023/12/23 02:57:12;;;;;;;1.67;1.40;;;5.30;99.90;;;;;;4957689;29;20255;-79
2023/12/23 02:59:38;;;;;;;3.03;1.30;;;5.30;99.90;;;;;;4957599;29;20212;-78
2023/12/23 03:02:05;;;;;;;3.87;1.30;;;5.30;99.90;;;;;;4957361;29;20288;-78
2023/12/23 03:04:32;;;;;;;2.23;1.70;;;5.30;99.90;;;;;;4957344;29;20232;-78
2023/12/23 03:06:59;;;;;;;3.30;1.47;;;5.30;99.90;;;;;;4957244;28;20209;-79
2023/12/23 03:09:26;;;;;;;4.23;1.57;;;5.30;99.90;;;;;;4957072;29;20201;-79
2023/12/23 03:11:53;;;;;;;2.07;1.33;;;5.30;99.90;;;;;;4957267;29;20294;-78
2023/12/23 03:14:21;;;;;;;3.23;1.50;;;5.30;99.90;;;;;;4957265;29;20208;-78
2023/12/23 03:16:47;;;;;;;2.83;1.53;;;5.30;99.90;;;;;;4957273;29;20212;-78
2023/12/23 03:19:14;;;;;;;1.67;1.57;;;5.30;99.90;;;;;;4957053;29;20227;-78
2023/12/23 03:21:45;;;;;;;4.13;1.83;;;5.30;99.90;;;;;;4956983;29;20283;-77
2023/12/23 03:24:11;;;;;;;2.07;1.63;;;5.30;99.90;;;;;;4956918;29;20205;-77
2023/12/23 03:26:38;;;;;;;1.77;1.50;;;5.30;99.90;;;;;;4957009;29;20255;-77
2023/12/23 03:29:06;;;;;;;2.03;1.47;;;5.30;99.90;;;;;;4956815;29;20301;-77
2023/12/23 03:31:34;;;;;;;3.10;1.70;;;5.30;99.90;;;;;;4956708;29;20200;-77
2023/12/23 03:34:02;;;;;;;1.97;1.70;;;5.30;99.90;;;;;;4956687;29;20542;-77
2023/12/23 03:36:28;;;;;;;2.57;1.70;;;5.30;99.90;;;;;;4956798;29;20291;-76
2023/12/23 03:38:55;;;;;;;2.03;1.70;;;5.30;99.90;;;;;;4956817;29;20264;-76
2023/12/23 03:41:22;;;;;;;2.20;2.00;;;5.30;99.90;;;;;;4961940;29;20319;-77
2023/12/23 03:43:49;;;;;;;3.00;1.80;;;5.40;99.90;;;;;;4956471;29;20582;-76
2023/12/23 03:46:19;;;;;;;3.60;1.70;;;5.40;99.90;;;;;;4956491;29;20653;-78
2023/12/23 03:48:47;;;;;;;2.63;2.03;;;5.30;99.90;;;;;;4956429;29;20243;-77
2023/12/23 03:51:14;;;;;;;4.63;2.40;;;5.20;99.90;;;;;;4956331;29;20213;-76
2023/12/23 03:53:41;;;;;;;11.47;2.00;;;5.20;99.90;;;;;;4956524;29;20204;-78
2023/12/23 03:56:08;;;;;;;5.10;2.50;;;5.10;99.90;;;;;;4956258;29;20209;-76
2023/12/23 03:58:34;;;;;;;4.47;2.23;;;5.10;99.90;;;;;;4956346;29;20251;-75
2023/12/23 04:01:01;;;;;;;3.37;2.30;;;5.10;99.90;;;;;;4956218;29;20225;-75
2023/12/23 04:03:28;;;;;;;2.67;2.40;;;5.10;99.90;;;;;;4956139;29;20236;-76
2023/12/23 04:05:56;;;;;;;5.37;2.43;;;5.10;99.90;;;;;;4956070;29;20197;-77
2023/12/23 04:08:22;;;;;;;2.20;1.83;;;5.20;99.90;;;;;;4956314;29;20244;-79
2023/12/23 04:10:49;;;;;;;3.50;2.30;;;5.20;99.90;;;;;;4956186;29;20197;-80
2023/12/23 04:13:16;;;;;;;3.20;2.00;;;5.30;99.90;;;;;;4956171;29;20201;-78
2023/12/23 04:15:43;;;;;;;2.70;2.03;;;5.40;99.90;;;;;;4956016;29;20201;-80
2023/12/23 04:18:10;;;;;;;2.40;1.80;;;5.40;99.90;;;;;;4955439;28;20201;-79
2023/12/23 04:20:36;;;;;;;4.43;2.20;;;5.40;99.90;;;;;;4956148;29;20201;-79
2023/12/23 04:23:04;;;;;;;4.57;2.30;;;5.50;99.90;;;;;;4955965;29;20232;-79
2023/12/23 04:25:31;;;;;;;4.67;2.90;;;5.60;99.90;;;;;;4955803;29;20209;-78
2023/12/23 04:27:58;;;;;;;7.87;3.20;;;5.60;99.90;;;;;;4955890;29;20656;-78
2023/12/23 04:30:24;;;;;;;4.50;2.97;;;5.70;99.90;;;;;;4955850;29;20256;-79
2023/12/23 04:32:51;;;;;;;4.80;2.73;;;5.70;99.90;;;;;;4955616;29;20205;-80
2023/12/23 04:35:17;;;;;;;6.43;2.70;;;5.70;99.90;;;;;;4955937;29;20201;-79
2023/12/23 04:37:44;;;;;;;10.97;3.43;;;5.70;99.90;;;;;;4955735;29;20209;-79
2023/12/23 04:40:13;;;;;;;4.23;3.30;;;5.80;99.90;;;;;;4955419;29;20720;-79
2023/12/23 04:42:39;;;;;;;7.23;2.50;;;5.80;99.90;;;;;;4955286;29;20276;-77
2023/12/23 04:45:07;;;;;;;5.37;2.70;;;5.80;99.90;;;;;;4955435;29;20201;-77
2023/12/23 04:47:34;;;;;;;5.27;2.87;;;5.80;99.90;;;;;;4955430;29;20657;-79
2023/12/23 04:50:00;;;;;;;9.63;3.07;;;5.80;99.90;;;;;;4955682;29;20201;-80
2023/12/23 04:52:27;;;;;;;6.47;2.50;;;5.80;99.90;;;;;;4955726;29;20264;-78
2023/12/23 04:54:54;;;;;;;6.77;2.77;;;5.70;99.90;;;;;;4955821;29;20197;-79
2023/12/23 04:57:22;;;;;;;4.87;2.67;;;5.70;99.90;;;;;;4962552;29;20228;-81
2023/12/23 04:59:48;;;;;;;7.20;3.23;;;5.70;99.90;;;;;;4957645;29;20272;-79
2023/12/23 05:02:15;;;;;;;4.47;3.00;;;5.70;99.90;;;;;;4957432;29;20655;-79
2023/12/23 05:04:46;;;;;;;4.47;2.80;;;5.70;99.90;;;;;;4955570;29;20205;-79
2023/12/23 05:07:12;;;;;;;5.70;3.30;;;5.70;99.90;;;;;;4955457;29;20205;-78
2023/12/23 05:09:39;;;;;;;5.57;2.90;;;5.70;99.90;;;;;;4955324;29;20209;-79
2023/12/23 05:12:06;;;;;;;4.53;2.60;;;5.70;99.90;;;;;;4955923;29;20205;-79
2023/12/23 05:14:34;;;;;;;9.33;3.60;;;5.70;99.90;;;;;;4955176;29;20200;-80
2023/12/23 05:17:01;;;;;;;8.80;2.90;;;5.70;99.90;;;;;;4955141;29;20227;-80
2023/12/23 05:19:27;;;;;;;7.60;3.07;;;5.70;99.90;;;;;;4954816;29;20661;-81
2023/12/23 05:21:54;;;;;;;6.90;2.87;;;5.70;99.90;;;;;;4954753;29;20252;-79
2023/12/23 05:24:20;;;;;;;9.43;3.40;;;5.70;99.90;;;;;;4955033;29;20197;-79
2023/12/23 05:26:47;;;;;;;5.87;3.27;;;5.70;99.90;;;;;;4954873;29;20205;-79
2023/12/23 05:29:13;;;;;;;5.90;2.87;;;5.70;99.90;;;;;;4953849;28;20205;-78
2023/12/23 05:31:41;;;;;;;7.10;3.27;;;5.70;99.90;;;;;;4954606;29;20252;-78
2023/12/23 05:34:08;;;;;;;6.60;3.67;;;5.70;99.90;;;;;;4955039;29;20674;-78
2023/12/23 05:36:35;;;;;;;5.73;3.20;;;5.70;99.90;;;;;;4954833;29;20196;-77
2023/12/23 05:39:01;;;;;;;5.83;3.37;;;5.70;99.90;;;;;;4954712;29;20204;-77
2023/12/23 05:41:28;;;;;;;6.20;3.37;;;5.70;99.90;;;;;;4954351;29;20232;-76
2023/12/23 05:43:54;;;;;;;7.97;3.23;;;5.70;99.90;;;;;;4954937;29;20204;-77
2023/12/23 05:46:21;;;;;;;4.20;3.03;;;5.70;99.90;;;;;;4954740;29;20204;-78
2023/12/23 05:48:49;;;;;;;11.83;4.10;;;5.70;99.90;;;;;;4954571;29;20220;-74
2023/12/23 05:51:16;;;;;;;5.40;3.40;;;5.70;99.90;;;;;;4954586;29;20201;-75
2023/12/23 05:53:42;;;;;;;4.33;2.80;;;5.80;99.90;;;;;;4954560;29;20271;-74
2023/12/23 05:56:09;;;;;;;12.17;3.20;;;5.70;99.90;;;;;;4954473;29;20209;-75
2023/12/23 05:58:36;;;;;;;5.40;2.60;;;5.70;99.90;;;;;;4954457;29;20608;-75
2023/12/23 06:01:02;;;;;;;3.67;2.60;;;5.70;99.90;;;;;;4954632;29;20205;-76
2023/12/23 06:03:29;;;;;;;6.43;3.53;;;5.70;99.90;;;;;;4954394;29;20233;-76
2023/12/23 06:05:57;;;;;;;6.03;2.83;;;5.70;99.90;;;;;;4954224;29;20202;-77
2023/12/23 06:08:24;;;;;;;7.33;4.00;;;5.70;99.90;;;;;;4954414;29;20607;-76
2023/12/23 06:10:50;;;;;;;4.37;2.90;;;5.70;99.90;;;;;;4954373;29;20229;-75
2023/12/23 06:13:17;;;;;;;5.97;3.43;;;5.80;99.90;;;;;;4954606;29;20259;-77
2023/12/23 06:15:44;;;;;;;3.77;2.73;;;5.70;99.90;;;;;;4954603;29;20248;-78
2023/12/23 06:18:11;;;;;;;5.20;2.70;;;5.70;99.90;;;;;;4954462;29;20205;-76
2023/12/23 06:20:37;;;;;;;5.57;2.93;;;5.70;99.90;;;;;;4946602;29;20208;-78
2023/12/23 06:23:05;;;;;;;7.67;4.20;;;5.70;99.90;;;;;;4956509;29;20221;-79
2023/12/23 06:25:32;;;;;;;5.37;3.03;;;5.70;99.90;;;;;;4959153;29;20205;-80
2023/12/23 06:27:59;;;;;;;3.47;2.57;;;5.70;99.90;;;;;;4954453;29;20712;-76
2023/12/23 06:30:25;;;;;;;5.43;2.67;;;5.70;99.90;;;;;;4954143;29;20260;-78
2023/12/23 06:32:52;;;;;;;4.80;2.80;;;5.70;99.90;;;;;;4954244;29;20602;-79
2023/12/23 06:35:20;;;;;;;4.83;2.83;;;5.70;99.90;;;;;;4954178;29;20256;-78
2023/12/23 06:37:46;;;;;;;6.40;3.20;;;5.70;99.90;;;;;;4954133;29;20205;-77
2023/12/23 06:40:15;;;;;;;4.03;2.73;;;5.70;99.90;;;;;;4954536;28;20205;-76
2023/12/23 06:42:41;;;;;;;5.30;3.13;;;5.70;99.90;;;;;;4957416;29;20247;-77
2023/12/23 06:45:09;;;;;;;6.83;3.27;;;5.70;99.90;;;;;;4957727;29;20205;-78
2023/12/23 06:47:36;;;;;;;6.43;3.73;;;5.70;99.90;;;;;;4957655;29;20201;-79
2023/12/23 06:50:02;;;;;;;7.20;3.50;;;5.70;99.90;;;;;;4957642;29;20252;-79
2023/12/23 06:52:29;;;;;;;6.03;3.30;;;5.70;99.90;;;;;;4957361;29;20212;-74
2023/12/23 06:54:55;;;;;;;6.03;3.00;;;5.70;99.90;;;;;;4957624;29;20248;-75
2023/12/23 06:57:24;;;;;;;4.50;3.20;;;5.70;99.90;;;;;;4957594;29;20212;-75
2023/12/23 06:59:50;;;;;;;3.93;2.73;;;5.70;99.90;;;;;;4957501;29;20208;-75
2023/12/23 07:02:17;;;;;;;6.00;2.97;;;5.70;99.90;;;;;;4957184;29;20232;-75
2023/12/23 07:04:44;;;;;;;5.83;2.97;;;5.70;99.90;;;;;;4957150;29;20723;-76
2023/12/23 07:07:11;;;;;;;6.07;2.63;;;5.70;99.90;;;;;;4957355;29;20669;-74
2023/12/23 07:09:37;;;;;;;6.77;3.17;;;5.70;99.90;;;;;;4957507;29;20207;-75
2023/12/23 07:12:05;;;;;;;5.97;2.83;;;5.70;99.90;;;;;;4957112;29;20633;-75
2023/12/23 07:14:33;;;;;;;10.77;2.33;;;5.70;99.90;;;;;;4957165;29;20254;-74
2023/12/23 07:17:00;;;;;;;5.73;3.03;;;5.70;99.90;;;;;;4956940;29;20209;-76
2023/12/23 07:19:26;;;;;;;4.93;2.77;;;5.70;99.90;;;;;;4956898;29;20229;-78
2023/12/23 07:21:53;;;;;;;4.93;2.53;;;5.70;99.90;;;;;;4956900;29;20256;-76
2023/12/23 07:24:20;;;;;;;3.73;2.60;;;5.70;99.90;;;;;;4956965;29;20203;-77
2023/12/23 07:26:47;;;;;;;5.03;2.53;;;5.70;99.90;;;;;;4956809;29;20653;-77
2023/12/23 07:29:13;;;;;;;8.63;3.30;;;5.70;99.90;;;;;;4956869;29;20224;-77
2023/12/23 07:31:41;;;;;;;3.87;2.73;;;5.70;99.90;;;;;;4956672;29;20205;-75
2023/12/23 07:34:08;;;;;;;4.67;2.60;;;5.70;99.90;;;;;;4956567;29;20205;-76
2023/12/23 07:36:34;;;;;;;3.37;2.50;;;5.70;99.90;;;;;;4956673;29;20207;-77
2023/12/23 07:39:01;;;;;;;4.00;2.70;;;5.80;99.90;;;;;;4956751;29;20204;-75
2023/12/23 07:41:28;;;;;;;4.43;3.17;;;5.80;99.90;;;;;;4956230;29;20201;-76
2023/12/23 07:43:54;;;;;;;4.33;2.77;;;5.80;99.90;;;;;;4956600;29;20276;-75
2023/12/23 07:46:21;;;;;;;4.70;2.63;;;5.80;99.90;;;;;;4956478;29;20201;-75
2023/12/23 07:48:49;;;;;;;4.53;2.80;;;5.80;99.90;;;;;;4956435;29;20205;-75
2023/12/23 07:51:15;;;;;;;3.67;2.20;;;5.80;99.90;;;;;;4956038;29;20252;-76
2023/12/23 07:53:42;;;;;;;3.93;2.30;;;5.80;99.90;;;;;;4955641;28;20205;-75
2023/12/23 07:56:09;;;;;;;5.27;2.87;;;5.80;99.90;;;;;;4956439;29;20200;-75
2023/12/23 07:58:35;;;;;;;3.30;2.30;;;5.90;99.90;;;;;;4956137;29;20201;-75
2023/12/23 08:01:03;;;;;;;3.23;2.30;;;5.90;99.90;;;;;;4956054;29;20728;-76
2023/12/23 08:03:29;;;;;;;3.00;2.30;;;5.80;99.90;;;;;;4956058;29;20268;-78
2023/12/23 08:05:57;;;;;;;4.47;2.13;;;5.90;99.90;;;;;;4956141;29;20660;-76
2023/12/23 08:08:24;;;;;;;7.57;2.83;;;5.90;99.90;;;;;;4952661;29;20206;-76
2023/12/23 08:10:52;;;;;;;3.30;2.47;;;5.80;99.90;;;;;;4936797;29;20257;-77
2023/12/23 08:13:20;;;;;;;3.33;2.23;;;5.80;99.90;;;;;;4936704;29;20212;-75
2023/12/23 08:15:47;;;;;;;2.77;2.10;;;5.80;99.90;;;;;;4936715;29;20257;-75
2023/12/23 08:18:13;;;;;;;2.80;2.30;;;5.90;99.90;;;;;;4936783;29;20202;-73
2023/12/23 08:20:40;;;;;;;4.13;2.50;;;5.90;99.90;;;;;;4936740;29;20253;-75
2023/12/23 08:23:08;;;;;;;3.13;2.07;;;5.90;99.90;;;;;;4936320;29;20229;-74
2023/12/23 08:25:34;;;;;;;2.40;2.20;;;5.90;99.90;;;;;;4936473;29;20262;-73
2023/12/23 08:28:01;;;;;;;3.70;2.07;;;5.90;99.90;;;;;;4936547;29;20213;-74
2023/12/23 08:30:28;;;;;;;2.57;1.70;;;5.90;99.90;;;;;;4936299;29;20257;-75
2023/12/23 08:32:54;;;;;;;5.23;2.70;;;5.90;99.90;;;;;;4936461;29;20202;-74
2023/12/23 08:35:22;;;;;;;2.93;2.10;;;5.90;99.90;;;;;;4936493;29;20208;-75
2023/12/23 08:37:48;;;;;;;3.33;2.60;;;5.90;99.90;;;;;;4936551;29;20201;-76
2023/12/23 08:40:16;;;;;;;2.27;2.07;;;5.90;99.90;;;;;;4936314;29;20204;-76
2023/12/23 08:42:44;;;;;;;3.03;2.10;;;5.90;99.90;;;;;;4947728;29;20240;-76
2023/12/23 08:45:11;;;;;;;3.97;2.10;;;5.90;99.90;;;;;;4955403;29;20211;-76
2023/12/23 08:47:37;;;;;;;5.20;2.47;;;5.90;99.90;;;;;;4955322;29;20240;-75
2023/12/23 08:50:04;;;;;;;5.03;2.13;;;5.90;99.90;;;;;;4955343;29;20228;-75
2023/12/23 08:52:31;;;;;;;6.30;2.37;;;5.90;99.90;;;;;;4955146;29;20261;-73
2023/12/23 08:54:58;;;;;;;5.33;2.20;;;5.90;99.90;;;;;;4954982;29;20205;-75
2023/12/23 08:57:26;;;;;;;3.63;2.57;;;5.90;99.90;;;;;;4954902;29;20201;-74
2023/12/23 08:59:52;;;;;;;3.80;2.10;;;5.80;99.90;;;;;;4955141;29;20326;-74
2023/12/23 09:02:19;;;;;;;2.17;1.93;;;5.90;99.90;;;;;;4954968;29;20205;-74
2023/12/23 09:04:45;;;;;;;3.20;2.27;;;5.90;99.90;;;;;;4954706;28;20256;-74
2023/12/23 09:07:12;;;;;;;3.40;2.13;;;5.90;99.90;;;;;;4955000;29;20264;-75
2023/12/23 09:09:40;;;;;;;4.07;2.47;;;5.90;99.90;;;;;;4954891;29;20205;-74
2023/12/23 09:12:07;;;;;;;6.30;2.80;;;5.80;99.90;;;;;;4954953;29;20263;-76
2023/12/23 09:14:35;;;;;;;3.13;2.43;;;5.90;99.90;;;;;;4955146;29;20259;-74
2023/12/23 09:17:02;;;;;;;3.43;2.37;;;5.90;99.90;;;;;;4954951;29;20205;-75
2023/12/23 09:19:29;;;;;;;2.73;2.20;;;5.90;99.90;;;;;;4954860;29;20197;-74
2023/12/23 09:21:56;;;;;;;2.30;2.10;;;5.80;99.90;;;;;;4954637;29;20200;-75
2023/12/23 09:24:23;;;;;;;2.93;2.20;;;5.90;99.90;;;;;;4954503;29;20677;-76
2023/12/23 09:26:49;;;;;;;2.57;2.00;;;5.90;99.90;;;;;;4954989;29;20202;-80
2023/12/23 09:29:16;;;;;;;3.50;2.00;;;5.90;99.90;;;;;;4954690;29;20201;-75
2023/12/23 09:31:44;;;;;;;2.50;2.00;;;5.90;99.90;;;;;;4954656;29;20548;-75
2023/12/23 09:34:10;;;;;;;1.90;1.60;;;5.90;99.90;;;;;;4954559;29;20201;-76
2023/12/23 09:36:37;;;;;;;1.73;1.60;;;5.90;99.90;;;;;;4954369;29;20201;-78
2023/12/23 09:39:04;;;;;;;1.70;1.60;;;5.90;99.90;;;;;;4954497;29;20251;-79
2023/12/23 09:41:32;;;;;;;2.60;1.83;;;5.90;99.90;;;;;;4954327;29;20201;-82
2023/12/23 09:43:58;;;;;;;2.67;1.73;;;5.90;99.90;;;;;;4954672;29;20233;-81
2023/12/23 09:46:26;;;;;;;1.77;1.67;;;5.90;99.90;;;;;;4954730;29;20205;-82
2023/12/23 09:48:53;;;;;;;2.60;1.67;;;6.00;99.90;;;;;;4954761;29;20231;-82
2023/12/23 09:51:26;;;;;;;1.60;1.50;;;5.90;99.90;;;;;;4954539;29;20252;-78
2023/12/23 09:53:57;;;;;;;1.50;1.40;;;6.00;99.90;;;;;;4954886;29;20245;-83
2023/12/23 09:56:24;;;;;;;1.93;1.40;;;6.00;99.90;;;;;;4954872;29;20201;-81
2023/12/23 09:58:52;;;;;;;1.50;1.40;;;6.00;99.90;;;;;;4954762;29;20212;-88
2023/12/23 10:01:19;;;;;;;1.60;1.30;;;6.00;99.90;;;;;;4922047;29;20201;-80
2023/12/23 10:03:47;;;;;;;1.17;1.07;;;6.10;99.90;;;;;;4954763;29;20229;-79
2023/12/23 10:06:15;;;;;;;1.40;1.30;;;6.00;99.90;;;;;;4954200;29;20630;-77
2023/12/23 10:08:42;;;;;;;1.03;0.90;;;6.00;99.90;;;;;;4954315;29;20201;-78
2023/12/23 10:11:09;;;;;;;2.20;1.27;;;6.00;99.90;;;;;;4954358;29;20209;-76
2023/12/23 10:13:37;;;;;;;1.23;1.13;;;6.00;99.90;;;;;;4954328;29;20205;-75
2023/12/23 10:16:04;;;;;;;1.37;1.10;;;6.00;99.90;;;;;;4955524;28;20351;-76
2023/12/23 10:18:32;;;;;;;1.20;1.10;;;6.00;99.90;;;;;;4957955;29;20204;-76
2023/12/23 10:20:58;;;;;;;2.53;1.50;;;6.00;99.90;;;;;;4958169;29;20200;-76
2023/12/23 10:23:28;;;;;;;1.57;1.23;;;6.00;99.90;;;;;;4957916;29;20228;-76
2023/12/23 10:25:55;;;;;;;1.40;1.20;;;6.00;99.90;;;;;;4957923;29;20205;-76
2023/12/23 10:28:25;;;;;;;1.07;0.97;;;6.00;99.90;;;;;;4957527;29;20208;-80
2023/12/23 10:30:55;;;;;;;1.73;1.20;;;6.00;99.90;;;;;;4957715;29;20212;-77
2023/12/23 10:33:26;;;;;;;1.20;1.10;;;6.00;99.90;;;;;;4957597;29;20208;-76
2023/12/23 10:35:57;;;;;;;1.40;1.10;;;6.00;99.90;;;;;;4957888;29;20264;-81
2023/12/23 10:38:27;;;;;;;1.90;1.50;;;6.00;99.90;;;;;;4957752;29;20209;-78
2023/12/23 10:41:02;;;;;;;1.53;1.17;;;6.00;99.90;;;;;;4957671;29;20205;-78
2023/12/23 10:43:29;;;;;;;1.23;1.13;;;6.00;99.90;;;;;;4957266;29;20692;-79
2023/12/23 10:45:57;;;;;;;1.67;1.57;;;6.00;99.90;;;;;;4957775;29;20256;-80
2023/12/23 10:48:28;;;;;;;11.63;8.27;;;6.00;99.90;;;;;;4957723;29;20201;-80
2023/12/23 10:50:57;;;;;;;6.23;3.70;;;6.00;99.90;;;;;;4957558;29;20260;-77
2023/12/23 10:53:24;;;;;;;5.57;4.10;;;6.00;99.90;;;;;;4957490;29;20205;-77
2023/12/23 10:55:54;;;;;;;9.53;6.40;;;6.00;99.90;;;;;;4957428;29;20201;-76
2023/12/23 10:58:21;;;;;;;9.53;6.97;;;6.00;99.90;;;;;;4957343;29;20260;-77
2023/12/23 11:00:49;;;;;;;2.90;2.40;;;6.00;99.90;;;;;;4957438;29;20609;-77
2023/12/23 11:03:16;;;;;;;5.97;4.90;;;6.00;99.90;;;;;;4957411;29;20276;-76
2023/12/23 11:05:44;;;;;;;2.30;2.10;;;6.00;99.90;;;;;;4957196;29;20255;-76
2023/12/23 11:08:16;;;;;;;1.90;1.80;;;6.00;99.90;;;;;;4957057;29;20205;-76
2023/12/23 11:10:43;;;;;;;1.30;1.20;;;6.00;99.90;;;;;;4956892;29;20286;-75
2023/12/23 11:13:12;;;;;;;1.20;1.10;;;6.00;99.90;;;;;;4957224;29;20276;-76
2023/12/23 11:15:40;;;;;;;1.37;1.27;;;6.00;99.90;;;;;;4956934;29;20292;-75
2023/12/23 11:18:09;;;;;;;3.00;2.70;;;6.00;99.90;;;;;;4956636;29;20201;-74
2023/12/23 11:20:47;;;;;;;2.40;2.20;;;6.00;99.90;;;;;;4957010;29;20197;-74
2023/12/23 11:23:38;;;;;;;3.60;2.07;;;6.00;99.90;;;;;;4956772;29;20268;-74
2023/12/23 11:26:05;;;;;;;2.40;1.73;;;6.00;99.90;;;;;;4937421;29;20201;-74
2023/12/23 11:28:36;;;;;;;3.63;3.30;;;6.00;99.90;;;;;;4955713;28;20232;-74
2023/12/23 11:31:04;;;;;;;1.30;1.20;;;6.00;99.90;;;;;;4955839;29;20291;-75
2023/12/23 11:33:34;;;;;;;1.30;1.20;;;6.00;99.90;;;;;;4955666;29;20219;-74
2023/12/23 11:36:02;;;;;;;1.13;1.03;;;6.00;99.90;;;;;;4956183;29;20287;-79
2023/12/23 11:38:30;;;;;;;1.60;1.50;;;6.00;99.90;;;;;;4960103;29;20209;-78
2023/12/23 11:40:56;;;;;;;1.53;1.40;;;6.00;99.90;;;;;;4955672;29;20201;-77
2023/12/23 11:43:24;;;;;;;1.20;1.10;;;6.00;99.90;;;;;;4956393;29;20324;-77
2023/12/23 11:45:53;;;;;;;1.57;1.40;;;6.00;99.90;;;;;;4956536;29;20205;-77
2023/12/23 11:48:21;;;;;;;1.83;1.37;;;6.00;99.90;;;;;;4956382;29;20201;-76
2023/12/23 11:50:48;;;;;;;2.17;1.80;;;6.00;99.90;;;;;;4956511;29;20197;-76
2023/12/23 11:53:16;;;;;;;3.33;2.10;;;6.00;99.90;;;;;;4956525;29;20293;-77
2023/12/23 11:55:43;;;;;;;1.60;1.50;;;6.00;99.90;;;;;;4955983;29;20259;-77
2023/12/23 11:58:10;;;;;;;2.87;1.90;;;6.00;99.90;;;;;;4955588;29;20288;-76
2023/12/23 12:00:38;;;;;;;1.27;1.13;;;6.00;99.90;;;;;;4956289;29;20235;-75
2023/12/23 12:03:06;;;;;;;1.30;1.20;;;6.00;99.90;;;;;;4956443;29;20256;-75
2023/12/23 12:05:33;;;;;;;1.93;1.00;;;6.00;99.90;;;;;;4956239;29;20637;-74
2023/12/23 12:08:00;;;;;;;1.37;1.27;;;6.10;99.90;;;;;;4956052;29;20264;-76
2023/12/23 12:10:27;;;;;;;1.37;1.27;;;6.10;99.90;;;;;;4956181;29;20613;-76
2023/12/23 12:12:53;;;;;;;2.33;2.07;;;6.00;99.90;;;;;;4955823;29;20252;-76
2023/12/23 12:15:20;;;;;;;3.37;1.70;;;6.10;99.90;;;;;;4955599;29;20256;-77
2023/12/23 12:17:46;;;;;;;1.83;1.43;;;6.00;99.90;;;;;;4955981;29;20236;-75
2023/12/23 12:20:14;;;;;;;1.57;1.47;;;6.10;99.90;;;;;;4955907;29;20252;-75
2023/12/23 12:22:45;;;;;;;3.23;1.67;;;6.00;99.90;;;;;;4957929;29;20613;-75
2023/12/23 12:25:11;;;;;;;1.27;1.17;;;6.00;99.90;;;;;;4955701;29;20232;-76
2023/12/23 12:27:40;;;;;;;1.73;1.50;;;6.10;99.90;;;;;;4949201;29;20256;-73
2023/12/23 12:30:08;;;;;;;2.60;1.27;;;6.00;99.90;;;;;;4955593;29;20256;-73
2023/12/23 12:32:35;;;;;;;0.87;0.87;;;6.00;99.90;;;;;;4955382;29;20585;-73
2023/12/23 12:35:02;;;;;;;1.40;1.30;;;6.00;99.90;;;;;;4955417;29;20725;-72
2023/12/23 12:37:30;;;;;;;1.70;1.57;;;6.10;99.90;;;;;;4955589;29;20202;-71
2023/12/23 12:39:57;;;;;;;1.70;1.60;;;6.00;99.90;;;;;;4955084;28;20205;-71
2023/12/23 12:42:24;;;;;;;1.57;1.20;;;6.00;99.90;;;;;;4955135;29;20229;-73
2023/12/23 12:44:52;;;;;;;1.43;1.33;;;6.00;99.90;;;;;;4955409;29;20228;-72
2023/12/23 12:47:19;;;;;;;1.23;1.13;;;6.00;99.90;;;;;;4955571;29;20269;-71
2023/12/23 12:49:47;;;;;;;1.10;1.00;;;6.00;99.90;;;;;;4955347;29;20255;-71
2023/12/23 12:52:12;;;;;;;1.40;1.30;;;6.00;99.90;;;;;;4955254;29;20201;-74
2023/12/23 12:54:42;;;;;;;1.03;1.03;;;6.10;99.90;;;;;;4955023;29;20255;-74
2023/12/23 12:57:09;;;;;;;1.50;1.40;;;6.10;99.90;;;;;;4955354;29;20201;-75